Terminal Aerodrome Forecast
Issued by NWS

Home | Current Version | Previous Version | Text Only | Print | Product List | Glossary On
Versions: 1 2 3 4 5 6 7 8 9 10 11 12 13 14 15 16 17
000
FTUS43 KDVN 291100
TAFBRL
TAF
KBRL 291136Z 2912/3012 28004KT P6SM SKC
      TEMPO 2912/2915 BKN040
     FM300000 27003KT P6SM FEW250=

USA.gov is the U.S. government's official web portal to all federal, state and local government web resources and services.